createdAt,value
2019-05-10T00:00:04.729Z,11.20
2019-05-10T00:01:04.947Z,11.10
2019-05-10T00:02:07.675Z,11.10
2019-05-10T00:03:04.678Z,11.10
2019-05-10T00:04:04.908Z,11.10
2019-05-10T00:05:05.007Z,11.10
2019-05-10T00:06:10.123Z,11.10
2019-05-10T00:07:05.163Z,11.10
2019-05-10T00:08:07.828Z,11.10
2019-05-10T00:09:07.480Z,11.10
2019-05-10T00:10:10.511Z,11.10
2019-05-10T00:11:05.453Z,11.10
2019-05-10T00:12:05.627Z,11.10
2019-05-10T00:13:07.344Z,11.10
2019-05-10T00:14:05.255Z,11.00
2019-05-10T00:15:07.848Z,11.00
2019-05-10T00:16:04.779Z,11.00
2019-05-10T00:17:04.924Z,11.00
2019-05-10T00:18:07.615Z,10.90
2019-05-10T00:19:08.098Z,10.90
2019-05-10T00:20:05.111Z,10.90
2019-05-10T00:21:07.909Z,10.90
2019-05-10T00:22:07.408Z,10.90
2019-05-10T00:23:05.346Z,10.80
2019-05-10T00:24:05.423Z,10.80
2019-05-10T00:25:05.626Z,10.80
2019-05-10T00:26:04.921Z,10.80
2019-05-10T00:27:07.621Z,10.70
2019-05-10T00:28:10.604Z,10.70
2019-05-10T00:29:05.530Z,10.70
2019-05-10T00:30:08.266Z,10.60
2019-05-10T00:31:05.272Z,10.60
2019-05-10T00:32:05.346Z,10.60
2019-05-10T00:33:07.962Z,10.50
2019-05-10T00:34:04.993Z,10.50
2019-05-10T00:35:07.605Z,10.40
2019-05-10T00:36:10.658Z,10.40
2019-05-10T00:37:05.787Z,10.40
2019-05-10T00:38:04.917Z,10.40
2019-05-10T00:39:07.641Z,10.40
2019-05-10T00:40:08.325Z,10.30
2019-05-10T00:41:07.823Z,10.30
2019-05-10T00:42:04.741Z,10.30
2019-05-10T00:43:07.449Z,10.30
2019-05-10T00:44:07.949Z,10.30
2019-05-10T00:45:07.550Z,10.20
2019-05-10T00:46:08.077Z,10.30
2019-05-10T00:47:05.059Z,10.20
2019-05-10T00:48:05.126Z,10.30
2019-05-10T00:49:05.223Z,10.20
2019-05-10T00:50:05.250Z,10.20
2019-05-10T00:51:07.986Z,10.20
2019-05-10T00:52:07.559Z,10.20
2019-05-10T00:53:08.114Z,10.20
2019-05-10T00:54:05.201Z,10.10
2019-05-10T00:55:17.670Z,10.20
2019-05-10T00:56:07.909Z,10.10
2019-05-10T00:57:07.392Z,10.10
2019-05-10T00:58:05.468Z,10.20
2019-05-10T00:59:08.120Z,10.10
2019-05-10T01:00:05.125Z,10.10
2019-05-10T01:01:05.383Z,10.10
2019-05-10T01:02:08.128Z,10.10
2019-05-10T01:03:07.758Z,10.20
2019-05-10T01:04:07.247Z,10.20
2019-05-10T01:05:07.891Z,10.20
2019-05-10T01:06:05.003Z,10.10
2019-05-10T01:07:05.302Z,10.20
2019-05-10T01:08:05.439Z,10.20
2019-05-10T01:09:05.632Z,10.20
2019-05-10T01:10:07.359Z,10.20
2019-05-10T01:11:05.452Z,10.20
2019-05-10T01:12:05.588Z,10.20
2019-05-10T01:13:04.905Z,10.20
2019-05-10T01:14:07.746Z,10.20
2019-05-10T01:15:05.850Z,10.20
2019-05-10T01:16:04.974Z,10.20
2019-05-10T01:17:05.302Z,10.30
2019-05-10T01:18:05.398Z,10.30
2019-05-10T01:19:08.079Z,10.20
2019-05-10T01:20:07.560Z,10.20
2019-05-10T01:21:08.018Z,10.20
2019-05-10T01:22:04.941Z,10.30
2019-05-10T01:23:15.352Z,10.20
2019-05-10T01:24:07.941Z,10.30
2019-05-10T01:25:07.583Z,10.30
2019-05-10T01:26:05.593Z,10.30
2019-05-10T01:27:04.779Z,10.30
2019-05-10T01:28:09.906Z,10.30
2019-05-10T01:29:07.381Z,10.30
2019-05-10T01:30:07.861Z,10.20
2019-05-10T01:31:04.767Z,10.30
2019-05-10T01:32:07.568Z,10.20
2019-05-10T01:33:05.556Z,10.20
2019-05-10T01:34:10.692Z,10.20
2019-05-10T01:35:05.790Z,10.20
2019-05-10T01:36:04.989Z,10.20
2019-05-10T01:37:05.251Z,10.20
2019-05-10T01:38:07.776Z,10.10
2019-05-10T01:39:04.787Z,10.20
2019-05-10T01:40:04.898Z,10.20
2019-05-10T01:41:05.347Z,10.10
2019-05-10T01:42:07.967Z,10.10
2019-05-10T01:43:04.867Z,10.10
2019-05-10T01:44:04.916Z,10.10
2019-05-10T01:45:05.332Z,10.10
2019-05-10T01:46:05.634Z,10.00
2019-05-10T01:47:04.748Z,10.00
2019-05-10T01:48:12.469Z,9.90
2019-05-10T01:49:05.517Z,9.90
2019-05-10T01:50:08.135Z,9.90
2019-05-10T01:51:05.066Z,9.90
2019-05-10T01:52:05.089Z,9.90
2019-05-10T01:53:05.220Z,9.90
2019-05-10T01:54:05.350Z,9.90
2019-05-10T01:55:05.524Z,9.90
2019-05-10T01:56:05.554Z,9.80
2019-05-10T01:57:08.213Z,9.70
2019-05-10T01:58:05.307Z,9.80
2019-05-10T01:59:07.975Z,9.70
2019-05-10T02:00:07.506Z,9.70
2019-05-10T02:01:05.452Z,9.70
2019-05-10T02:02:05.516Z,9.60
2019-05-10T02:03:08.217Z,9.60
2019-05-10T02:04:05.411Z,9.60
2019-05-10T02:05:08.110Z,9.60
2019-05-10T02:06:07.735Z,9.50
2019-05-10T02:07:05.644Z,9.50
2019-05-10T02:08:04.665Z,9.50
2019-05-10T02:09:07.242Z,9.50
2019-05-10T02:10:05.210Z,9.50
2019-05-10T02:11:07.901Z,9.40
2019-05-10T02:12:04.856Z,9.40
2019-05-10T02:13:07.569Z,9.40
2019-05-10T02:14:08.062Z,9.40
2019-05-10T02:15:04.997Z,9.40
2019-05-10T02:16:05.047Z,9.40
2019-05-10T02:17:07.875Z,9.40
2019-05-10T02:18:07.502Z,9.40
2019-05-10T02:19:08.008Z,9.40
2019-05-10T02:20:04.873Z,9.40
2019-05-10T02:21:10.130Z,9.30
2019-05-10T02:22:05.090Z,9.40
2019-05-10T02:23:05.212Z,9.40
2019-05-10T02:24:05.360Z,9.40
2019-05-10T02:25:13.199Z,9.30
2019-05-10T02:26:09.715Z,9.30
2019-05-10T02:27:05.260Z,9.30
2019-05-10T02:28:08.007Z,9.30
2019-05-10T02:29:05.078Z,9.20
2019-05-10T02:30:07.878Z,9.20
2019-05-10T02:31:04.810Z,9.20
2019-05-10T02:32:07.533Z,9.20
2019-05-10T02:33:05.487Z,9.20
2019-05-10T02:34:05.548Z,9.20
2019-05-10T02:35:05.693Z,9.20
2019-05-10T02:36:07.353Z,9.20
2019-05-10T02:37:07.963Z,9.20
2019-05-10T02:38:04.982Z,9.20
2019-05-10T02:39:05.189Z,9.20
2019-05-10T02:40:07.882Z,9.20
2019-05-10T02:41:07.343Z,9.20
2019-05-10T02:42:05.280Z,9.20
2019-05-10T02:43:10.507Z,9.10
2019-05-10T02:44:05.457Z,9.10
2019-05-10T02:45:08.030Z,9.20
2019-05-10T02:46:07.623Z,9.10
2019-05-10T02:47:05.651Z,9.10
2019-05-10T02:48:04.837Z,9.20
2019-05-10T02:49:07.477Z,9.20
2019-05-10T02:50:08.024Z,9.10
2019-05-10T02:51:07.689Z,9.20
2019-05-10T02:52:04.811Z,9.20
2019-05-10T02:53:07.437Z,9.10
2019-05-10T02:54:07.959Z,9.20
2019-05-10T02:55:05.032Z,9.20
2019-05-10T02:56:05.218Z,9.20
2019-05-10T02:57:05.286Z,9.20
2019-05-10T02:58:07.940Z,9.20
2019-05-10T02:59:10.165Z,9.20
2019-05-10T03:00:05.196Z,9.20
2019-05-10T03:01:05.431Z,9.20
2019-05-10T03:02:08.121Z,9.30
2019-05-10T03:03:05.044Z,9.30
2019-05-10T03:04:04.939Z,9.20
2019-05-10T03:05:05.262Z,9.30
2019-05-10T03:06:05.452Z,9.30
2019-05-10T03:07:05.699Z,9.30
2019-05-10T03:08:04.781Z,9.40
2019-05-10T03:09:04.958Z,9.30
2019-05-10T03:10:05.082Z,9.40
2019-05-10T03:11:05.208Z,9.40
2019-05-10T03:12:07.844Z,9.40
2019-05-10T03:13:07.274Z,9.40
2019-05-10T03:14:10.252Z,9.40
2019-05-10T03:15:07.730Z,9.40
2019-05-10T03:16:09.770Z,9.50
2019-05-10T03:17:04.711Z,9.50
2019-05-10T03:18:07.295Z,9.50
2019-05-10T03:19:05.251Z,9.50
2019-05-10T03:20:05.364Z,9.50
2019-05-10T03:21:08.133Z,9.50
2019-05-10T03:22:05.108Z,9.50
2019-05-10T03:23:05.275Z,9.50
2019-05-10T03:24:05.347Z,9.50
2019-05-10T03:25:07.935Z,9.50
2019-05-10T03:26:07.452Z,9.50
2019-05-10T03:27:07.994Z,9.50
2019-05-10T03:28:07.518Z,9.60
2019-05-10T03:29:05.446Z,9.50
2019-05-10T03:30:08.091Z,9.60
2019-05-10T03:31:05.229Z,9.60
2019-05-10T03:32:05.444Z,9.60
2019-05-10T03:33:05.536Z,9.60
2019-05-10T03:34:05.603Z,9.50
2019-05-10T03:35:04.674Z,9.60
2019-05-10T03:36:04.838Z,9.60
2019-05-10T03:37:07.632Z,9.60
2019-05-10T03:38:05.763Z,9.60
2019-05-10T03:39:04.924Z,9.60
2019-05-10T03:40:05.007Z,9.60
2019-05-10T03:41:07.754Z,9.60
2019-05-10T03:42:07.304Z,9.60
2019-05-10T03:43:07.935Z,9.60
2019-05-10T03:44:04.864Z,9.60
2019-05-10T03:45:07.702Z,9.60
2019-05-10T03:46:07.207Z,9.60
2019-05-10T03:47:07.624Z,9.60
2019-05-10T03:48:05.696Z,9.60
2019-05-10T03:49:07.505Z,9.60
2019-05-10T03:50:08.244Z,9.60
2019-05-10T03:51:05.506Z,9.60
2019-05-10T03:52:07.996Z,9.60
2019-05-10T03:53:05.073Z,9.60
2019-05-10T03:54:05.608Z,9.60
2019-05-10T03:55:04.746Z,9.60
2019-05-10T03:56:07.353Z,9.60
2019-05-10T03:57:12.704Z,9.60
2019-05-10T03:58:07.400Z,9.70
2019-05-10T03:59:10.492Z,9.70
2019-05-10T04:00:05.515Z,9.70
2019-05-10T04:01:08.335Z,9.60
2019-05-10T04:02:05.481Z,9.60
2019-05-10T04:03:04.671Z,9.70
2019-05-10T04:04:09.252Z,9.70
2019-05-10T04:05:07.287Z,9.70
2019-05-10T04:06:07.709Z,9.70
2019-05-10T04:07:05.582Z,9.70
2019-05-10T04:08:12.274Z,9.70
2019-05-10T04:09:07.821Z,9.70
2019-05-10T04:10:04.792Z,9.70
2019-05-10T04:11:04.986Z,9.70
2019-05-10T04:12:07.552Z,9.80
2019-05-10T04:13:05.452Z,9.70
2019-05-10T04:14:05.618Z,9.80
2019-05-10T04:15:07.199Z,9.80
2019-05-10T04:16:07.681Z,9.80
2019-05-10T04:17:08.304Z,9.80
2019-05-10T04:18:05.316Z,9.80
2019-05-10T04:19:05.528Z,9.80
2019-05-10T04:20:04.779Z,9.80
2019-05-10T04:21:07.326Z,9.90
2019-05-10T04:22:05.235Z,9.80
2019-05-10T04:23:05.343Z,9.90
2019-05-10T04:24:10.474Z,9.90
2019-05-10T04:25:08.516Z,9.90
2019-05-10T04:26:08.024Z,9.90
2019-05-10T04:27:05.048Z,9.90
2019-05-10T04:28:05.355Z,9.90
2019-05-10T04:29:08.001Z,9.90
2019-05-10T04:30:04.916Z,10.00
2019-05-10T04:31:07.749Z,9.90
2019-05-10T04:32:04.747Z,10.00
2019-05-10T04:33:04.879Z,9.90
2019-05-10T04:34:10.087Z,10.00
2019-05-10T04:35:04.993Z,10.00
2019-05-10T04:36:12.496Z,10.00
2019-05-10T04:37:07.487Z,10.00
2019-05-10T04:38:05.621Z,10.00
2019-05-10T04:39:04.942Z,10.00
2019-05-10T04:40:07.435Z,10.00
2019-05-10T04:41:05.441Z,10.00
2019-05-10T04:42:08.058Z,10.00
2019-05-10T04:43:04.989Z,10.00
2019-05-10T04:44:05.074Z,10.00
2019-05-10T04:45:05.281Z,10.00
2019-05-10T04:46:05.405Z,10.10
2019-05-10T04:47:05.499Z,10.10
2019-05-10T04:48:08.146Z,10.10
2019-05-10T04:49:07.619Z,10.10
2019-05-10T04:50:05.576Z,10.10
2019-05-10T04:51:04.809Z,10.10
2019-05-10T04:52:04.854Z,10.10
2019-05-10T04:53:05.075Z,10.10
2019-05-10T04:54:05.394Z,10.10
2019-05-10T04:55:08.084Z,10.20
2019-05-10T04:56:07.590Z,10.20
2019-05-10T04:57:05.642Z,10.30
2019-05-10T04:58:07.287Z,10.30
2019-05-10T04:59:04.662Z,10.20
2019-05-10T05:00:04.737Z,10.30
2019-05-10T05:01:07.411Z,10.30
2019-05-10T05:02:10.373Z,10.30
2019-05-10T05:03:05.176Z,10.30
2019-05-10T05:04:07.960Z,10.30
2019-05-10T05:05:07.410Z,10.30
2019-05-10T05:06:05.369Z,10.30
2019-05-10T05:07:05.438Z,10.40
2019-05-10T05:08:08.001Z,10.40
2019-05-10T05:09:10.198Z,10.40
2019-05-10T05:10:07.760Z,10.40
2019-05-10T05:11:07.257Z,10.40
2019-05-10T05:12:06.871Z,10.40
2019-05-10T05:13:04.947Z,10.40
2019-05-10T05:14:09.174Z,10.50
2019-05-10T05:15:05.641Z,10.50
2019-05-10T05:16:07.287Z,10.50
2019-05-10T05:17:07.867Z,10.50
2019-05-10T05:18:09.842Z,10.60
2019-05-10T05:19:10.017Z,10.60
2019-05-10T05:20:04.902Z,10.60
2019-05-10T05:21:07.912Z,10.60
2019-05-10T05:22:04.948Z,10.60
2019-05-10T05:23:07.775Z,10.60
2019-05-10T05:24:04.798Z,10.60
2019-05-10T05:25:07.870Z,10.70
2019-05-10T05:26:07.431Z,10.70
2019-05-10T05:27:05.472Z,10.70
2019-05-10T05:28:07.749Z,10.70
2019-05-10T05:29:05.562Z,10.70
2019-05-10T05:30:07.252Z,10.70
2019-05-10T05:31:07.746Z,10.70
2019-05-10T05:32:07.194Z,10.70
2019-05-10T05:33:10.190Z,10.70
2019-05-10T05:34:06.404Z,10.80
2019-05-10T05:35:08.072Z,10.80
2019-05-10T05:36:05.000Z,10.80
2019-05-10T05:37:05.136Z,10.80
2019-05-10T05:38:05.106Z,10.80
2019-05-10T05:39:05.210Z,10.90
2019-05-10T05:40:07.809Z,10.90
2019-05-10T05:41:04.795Z,10.90
2019-05-10T05:42:04.914Z,10.90
2019-05-10T05:43:08.013Z,11.00
2019-05-10T05:44:05.672Z,11.00
2019-05-10T05:45:07.403Z,11.10
2019-05-10T05:46:05.278Z,11.10
2019-05-10T05:47:05.462Z,11.10
2019-05-10T05:48:05.588Z,11.20
2019-05-10T05:49:07.228Z,11.30
2019-05-10T05:50:10.256Z,11.30
2019-05-10T05:51:07.867Z,11.40
2019-05-10T05:52:05.131Z,11.40
2019-05-10T05:53:07.794Z,11.40
2019-05-10T05:54:04.971Z,11.40
2019-05-10T05:55:05.362Z,11.40
2019-05-10T05:56:12.462Z,11.40
2019-05-10T05:57:08.125Z,11.50
2019-05-10T05:58:24.044Z,11.60
2019-05-10T05:59:08.517Z,11.60
2019-05-10T06:00:07.670Z,11.80
2019-05-10T06:01:07.413Z,12.00
2019-05-10T06:02:07.280Z,12.00
2019-05-10T06:03:05.432Z,12.20
2019-05-10T06:04:06.200Z,12.40
2019-05-10T06:05:05.245Z,12.70
2019-05-10T06:06:15.239Z,13.20
2019-05-10T06:07:04.979Z,13.20
2019-05-10T06:08:21.136Z,13.40
2019-05-10T06:09:06.326Z,13.60
2019-05-10T06:10:09.987Z,13.90
2019-05-10T06:11:08.562Z,14.10
2019-05-10T06:12:12.544Z,14.50
2019-05-10T06:13:07.598Z,14.70
2019-05-10T06:14:14.006Z,14.80
2019-05-10T06:15:05.266Z,14.90
2019-05-10T06:16:06.213Z,15.00
2019-05-10T06:17:13.177Z,15.30
2019-05-10T06:18:09.474Z,15.30
2019-05-10T06:19:04.872Z,15.40
2019-05-10T06:20:10.165Z,15.60
2019-05-10T06:21:05.187Z,15.60
2019-05-10T06:22:06.891Z,15.70
2019-05-10T06:23:06.705Z,15.80
2019-05-10T06:24:07.253Z,15.90
2019-05-10T06:25:08.126Z,16.10
2019-05-10T06:26:20.527Z,16.30
2019-05-10T06:27:05.239Z,16.30
2019-05-10T06:28:12.702Z,16.40
2019-05-10T06:29:16.047Z,16.50
2019-05-10T06:30:08.214Z,16.80
2019-05-10T06:31:10.023Z,16.80
2019-05-10T06:32:07.735Z,16.80
2019-05-10T06:33:12.493Z,16.80
2019-05-10T06:34:07.906Z,16.70
2019-05-10T06:35:13.997Z,16.60
2019-05-10T06:36:05.432Z,16.60
2019-05-10T06:37:05.528Z,16.50
2019-05-10T06:38:05.873Z,16.40
2019-05-10T06:39:07.608Z,16.10
2019-05-10T06:40:05.710Z,16.00
2019-05-10T06:41:09.960Z,15.90
2019-05-10T06:42:07.239Z,15.60
2019-05-10T06:43:06.731Z,15.60
2019-05-10T06:44:05.313Z,15.50
2019-05-10T06:45:14.037Z,15.30
2019-05-10T06:46:07.787Z,15.10
2019-05-10T06:47:08.088Z,15.10
2019-05-10T06:48:05.017Z,15.00
2019-05-10T06:49:08.210Z,14.90
2019-05-10T06:50:07.480Z,14.80
2019-05-10T06:51:09.233Z,14.80
2019-05-10T06:52:07.603Z,14.60
2019-05-10T06:53:10.463Z,14.60
2019-05-10T06:54:05.321Z,14.50
2019-05-10T06:55:05.573Z,14.40
2019-05-10T06:56:04.756Z,14.30
2019-05-10T06:57:04.943Z,14.30
2019-05-10T06:58:05.016Z,14.20
2019-05-10T06:59:13.280Z,14.10
2019-05-10T07:00:06.573Z,14.10
2019-05-10T07:01:05.297Z,13.30
2019-05-10T07:02:08.047Z,14.20
2019-05-10T07:03:07.574Z,14.20
2019-05-10T07:04:05.545Z,14.30
2019-05-10T07:05:08.194Z,14.50
2019-05-10T07:06:07.873Z,14.60
2019-05-10T07:07:09.679Z,14.70
2019-05-10T07:08:14.186Z,14.70
2019-05-10T07:09:05.433Z,14.90
2019-05-10T07:10:12.878Z,15.10
2019-05-10T07:11:08.306Z,15.40
2019-05-10T07:12:09.220Z,15.40
2019-05-10T07:13:06.581Z,15.50
2019-05-10T07:14:05.172Z,15.60
2019-05-10T07:15:05.604Z,15.70
2019-05-10T07:16:04.999Z,15.80
2019-05-10T07:17:05.209Z,15.90
2019-05-10T07:18:05.511Z,15.90
2019-05-10T07:19:05.628Z,16.00
2019-05-10T07:20:04.741Z,16.10
2019-05-10T07:21:06.546Z,16.20
2019-05-10T07:22:05.600Z,16.20
2019-05-10T07:23:05.952Z,16.10
2019-05-10T07:24:04.848Z,16.10
2019-05-10T07:25:10.138Z,16.00
2019-05-10T07:26:05.147Z,16.00
2019-05-10T07:27:05.769Z,16.00
2019-05-10T07:28:09.200Z,16.00
2019-05-10T07:29:07.766Z,16.00
2019-05-10T07:30:04.854Z,16.00
2019-05-10T07:31:05.072Z,15.90
2019-05-10T07:32:05.329Z,15.90
2019-05-10T07:33:08.121Z,15.90
2019-05-10T07:34:09.604Z,15.90
2019-05-10T07:35:04.861Z,15.90
2019-05-10T07:36:13.713Z,15.90
2019-05-10T07:37:05.071Z,15.80
2019-05-10T07:38:05.278Z,15.70
2019-05-10T07:39:08.225Z,15.60
2019-05-10T07:40:10.655Z,15.40
2019-05-10T07:41:08.252Z,15.30
2019-05-10T07:42:06.449Z,15.30
2019-05-10T07:43:07.668Z,15.10
2019-05-10T07:44:07.629Z,15.00
2019-05-10T07:45:08.013Z,14.90
2019-05-10T07:46:06.850Z,14.80
2019-05-10T07:47:07.586Z,14.70
2019-05-10T07:48:07.942Z,14.70
2019-05-10T07:49:04.847Z,14.60
2019-05-10T07:50:09.535Z,14.60
2019-05-10T07:51:05.478Z,14.50
2019-05-10T07:52:05.504Z,14.50
2019-05-10T07:53:07.416Z,14.30
2019-05-10T07:54:10.403Z,14.20
2019-05-10T07:55:05.607Z,14.30
2019-05-10T07:56:07.987Z,14.20
2019-05-10T07:57:07.995Z,14.10
2019-05-10T07:58:07.573Z,14.00
2019-05-10T07:59:05.660Z,14.00
2019-05-10T08:00:06.077Z,14.00
2019-05-10T08:01:05.385Z,14.00
2019-05-10T08:03:13.001Z,13.90
2019-05-10T08:04:04.747Z,13.90
2019-05-10T08:05:09.812Z,13.80
2019-05-10T08:06:08.316Z,13.80
2019-05-10T08:07:08.133Z,13.80
2019-05-10T08:08:05.428Z,13.80
2019-05-10T08:09:06.923Z,13.80
2019-05-10T08:10:05.754Z,13.80
2019-05-10T08:11:08.531Z,13.80
2019-05-10T08:12:05.418Z,13.80
2019-05-10T08:13:04.722Z,13.80
2019-05-10T08:14:06.394Z,13.80
2019-05-10T08:15:08.545Z,14.00
2019-05-10T08:16:05.271Z,14.00
2019-05-10T08:17:06.191Z,14.20
2019-05-10T08:18:04.880Z,14.30
2019-05-10T08:19:05.104Z,14.40
2019-05-10T08:20:08.838Z,14.50
2019-05-10T08:21:18.619Z,14.60
2019-05-10T08:22:04.755Z,14.60
2019-05-10T08:23:10.127Z,14.70
2019-05-10T08:24:13.137Z,14.80
2019-05-10T08:25:05.546Z,14.70
2019-05-10T08:26:10.862Z,14.80
2019-05-10T08:27:11.417Z,14.80
2019-05-10T08:28:05.478Z,14.70
2019-05-10T08:29:07.479Z,14.70
2019-05-10T08:30:19.937Z,14.70
2019-05-10T08:31:07.288Z,14.60
2019-05-10T08:32:05.344Z,14.60
2019-05-10T08:33:09.595Z,14.60
2019-05-10T08:34:07.660Z,14.60
2019-05-10T08:36:05.644Z,14.70
2019-05-10T08:37:07.542Z,14.80
2019-05-10T08:38:05.553Z,14.80
2019-05-10T08:39:10.210Z,14.90
2019-05-10T08:40:04.704Z,15.10
2019-05-10T08:41:07.965Z,15.20
2019-05-10T08:42:19.702Z,15.30
2019-05-10T08:43:08.585Z,15.40
2019-05-10T08:44:04.977Z,15.50
2019-05-10T08:45:08.602Z,15.60
2019-05-10T08:46:04.989Z,15.70
2019-05-10T08:47:07.512Z,15.80
2019-05-10T08:48:07.025Z,15.90
2019-05-10T08:49:07.878Z,16.00
2019-05-10T08:50:20.447Z,16.10
2019-05-10T08:51:07.442Z,16.00
2019-05-10T08:52:04.809Z,16.10
2019-05-10T08:53:10.677Z,16.10
2019-05-10T08:54:12.131Z,16.20
2019-05-10T08:55:05.493Z,16.20
2019-05-10T08:56:07.475Z,16.30
2019-05-10T08:57:05.851Z,16.30
2019-05-10T08:58:07.747Z,16.40
2019-05-10T08:59:09.280Z,16.40
2019-05-10T09:00:08.655Z,16.40
2019-05-10T09:01:17.170Z,16.50
2019-05-10T09:02:04.937Z,16.60
2019-05-10T09:03:09.240Z,16.70
2019-05-10T09:04:10.742Z,16.80
2019-05-10T09:05:08.354Z,16.80
2019-05-10T09:06:10.998Z,16.80
2019-05-10T09:07:04.822Z,16.90
2019-05-10T09:08:05.718Z,16.90
2019-05-10T09:09:08.098Z,16.90
2019-05-10T09:10:09.631Z,17.00
2019-05-10T09:11:06.868Z,17.00
2019-05-10T09:12:08.865Z,17.00
2019-05-10T09:13:07.544Z,17.10
2019-05-10T09:14:12.160Z,17.20
2019-05-10T09:15:09.348Z,17.20
2019-05-10T09:16:08.085Z,17.30
2019-05-10T09:17:14.609Z,17.40
2019-05-10T09:18:07.319Z,17.30
2019-05-10T09:19:07.234Z,17.40
2019-05-10T09:20:11.836Z,17.30
2019-05-10T09:21:14.189Z,17.20
2019-05-10T09:22:04.851Z,17.20
2019-05-10T09:23:08.483Z,17.10
2019-05-10T09:24:06.487Z,17.10
2019-05-10T09:25:04.879Z,17.00
2019-05-10T09:26:10.084Z,16.90
2019-05-10T09:27:12.691Z,17.00
2019-05-10T09:28:11.385Z,16.90
2019-05-10T09:29:07.364Z,17.10
2019-05-10T09:30:08.009Z,17.10
2019-05-10T09:31:18.414Z,17.10
2019-05-10T09:32:06.529Z,17.10
2019-05-10T09:33:08.379Z,17.10
2019-05-10T09:34:07.825Z,17.20
2019-05-10T09:35:07.461Z,17.10
2019-05-10T09:36:05.270Z,17.20
2019-05-10T09:37:07.908Z,17.20
2019-05-10T09:38:07.504Z,17.30
2019-05-10T09:39:08.988Z,17.30
2019-05-10T09:40:09.710Z,17.40
2019-05-10T09:41:05.247Z,17.30
2019-05-10T09:42:08.728Z,17.40
2019-05-10T09:43:09.709Z,17.40
2019-05-10T09:44:05.603Z,17.40
2019-05-10T09:45:09.625Z,17.60
2019-05-10T09:46:05.525Z,17.60
2019-05-10T09:47:08.344Z,17.70
2019-05-10T09:48:05.457Z,17.80
2019-05-10T09:49:14.483Z,17.80
2019-05-10T09:50:05.577Z,17.80
2019-05-10T09:51:05.658Z,17.80
2019-05-10T09:52:12.490Z,17.80
2019-05-10T09:53:07.236Z,17.80
2019-05-10T09:54:10.506Z,17.70
2019-05-10T09:55:09.976Z,17.70
2019-05-10T09:56:07.927Z,17.70
2019-05-10T09:57:10.230Z,17.60
2019-05-10T09:58:05.350Z,17.50
2019-05-10T09:59:08.424Z,17.50
2019-05-10T10:00:07.515Z,17.40
2019-05-10T10:01:14.559Z,17.40
2019-05-10T10:02:14.258Z,17.30
2019-05-10T10:03:08.343Z,17.20
2019-05-10T10:04:05.592Z,17.20
2019-05-10T10:05:06.977Z,17.10
2019-05-10T10:06:07.528Z,17.10
2019-05-10T10:07:10.326Z,17.10
2019-05-10T10:08:08.966Z,17.00
2019-05-10T10:09:07.255Z,17.10
2019-05-10T10:10:07.038Z,17.00
2019-05-10T10:11:11.343Z,17.10
2019-05-10T10:12:06.901Z,17.00
2019-05-10T10:13:13.323Z,17.10
2019-05-10T10:14:10.131Z,17.10
2019-05-10T10:15:09.849Z,17.10
2019-05-10T10:16:10.016Z,17.10
2019-05-10T10:17:08.236Z,17.10
2019-05-10T10:18:12.453Z,17.10
2019-05-10T10:19:07.013Z,17.10
2019-05-10T10:20:08.486Z,17.00
2019-05-10T10:21:05.672Z,17.00
2019-05-10T10:22:05.426Z,17.00
2019-05-10T10:23:07.184Z,17.00
2019-05-10T10:24:12.046Z,17.00
2019-05-10T10:25:07.362Z,17.00
2019-05-10T10:26:07.158Z,16.90
2019-05-10T10:27:07.398Z,17.00
2019-05-10T10:28:08.092Z,17.00
2019-05-10T10:29:08.086Z,17.00
2019-05-10T10:30:06.431Z,17.00
2019-05-10T10:31:06.039Z,17.00
2019-05-10T10:32:07.666Z,17.00
2019-05-10T10:33:05.601Z,17.10
2019-05-10T10:34:07.225Z,17.10
2019-05-10T10:35:07.824Z,17.20
2019-05-10T10:36:10.466Z,17.20
2019-05-10T10:37:04.753Z,17.10
2019-05-10T10:38:08.400Z,17.20
2019-05-10T10:39:07.370Z,17.10
2019-05-10T10:40:05.951Z,17.10
2019-05-10T10:41:04.966Z,17.10
2019-05-10T10:42:08.601Z,17.10
2019-05-10T10:43:10.257Z,16.90
2019-05-10T10:44:05.213Z,16.90
2019-05-10T10:45:07.240Z,16.90
2019-05-10T10:46:11.818Z,16.90
2019-05-10T10:47:07.926Z,16.80
2019-05-10T10:48:11.252Z,16.70
2019-05-10T10:49:05.582Z,16.60
2019-05-10T10:50:08.858Z,16.60
2019-05-10T10:51:05.205Z,16.50
2019-05-10T10:52:05.523Z,16.40
2019-05-10T10:53:07.646Z,16.30
2019-05-10T10:54:07.358Z,16.20
2019-05-10T10:55:10.951Z,16.10
2019-05-10T10:56:07.370Z,16.10
2019-05-10T10:57:04.959Z,16.00
2019-05-10T10:58:07.313Z,15.90
2019-05-10T10:59:07.274Z,15.80
2019-05-10T11:00:07.612Z,15.70
2019-05-10T11:01:08.310Z,15.70
2019-05-10T11:02:28.657Z,15.60
2019-05-10T11:03:04.926Z,15.60
2019-05-10T11:04:07.985Z,15.50
2019-05-10T11:05:07.215Z,15.50
2019-05-10T11:06:05.295Z,15.50
2019-05-10T11:07:10.195Z,15.60
2019-05-10T11:08:05.187Z,15.60
2019-05-10T11:09:05.327Z,15.70
2019-05-10T11:10:15.186Z,15.80
2019-05-10T11:11:07.578Z,16.00
2019-05-10T11:12:08.181Z,16.10
2019-05-10T11:13:10.835Z,16.10
2019-05-10T11:14:07.427Z,16.20
2019-05-10T11:15:05.575Z,16.30
2019-05-10T11:16:10.546Z,16.60
2019-05-10T11:17:05.303Z,16.50
2019-05-10T11:18:05.443Z,16.60
2019-05-10T11:19:10.988Z,16.70
2019-05-10T11:20:08.367Z,16.70
2019-05-10T11:21:05.448Z,16.70
2019-05-10T11:22:09.394Z,16.70
2019-05-10T11:23:04.902Z,16.70
2019-05-10T11:24:10.070Z,16.60
2019-05-10T11:25:09.617Z,16.60
2019-05-10T11:26:10.820Z,16.40
2019-05-10T11:27:07.113Z,16.40
2019-05-10T11:28:08.664Z,16.40
2019-05-10T11:29:08.306Z,16.30
2019-05-10T11:30:07.924Z,16.20
2019-05-10T11:31:05.116Z,16.20
2019-05-10T11:32:14.605Z,16.10
2019-05-10T11:33:05.179Z,16.00
2019-05-10T11:34:07.991Z,15.90
2019-05-10T11:35:11.753Z,15.80
2019-05-10T11:36:08.528Z,15.80
2019-05-10T11:37:07.739Z,15.70
2019-05-10T11:38:06.513Z,15.70
2019-05-10T11:39:05.900Z,15.70
2019-05-10T11:40:07.992Z,15.70
2019-05-10T11:41:06.980Z,15.70
2019-05-10T11:42:07.673Z,15.70
2019-05-10T11:43:07.305Z,15.70
2019-05-10T11:44:15.582Z,15.70
2019-05-10T11:45:04.808Z,15.70
2019-05-10T11:46:04.943Z,15.70
2019-05-10T11:47:19.378Z,15.70
2019-05-10T11:48:04.867Z,15.70
2019-05-10T11:49:10.705Z,15.70
2019-05-10T11:50:06.429Z,15.60
2019-05-10T11:51:05.571Z,15.60
2019-05-10T11:52:05.122Z,15.60
2019-05-10T11:53:13.090Z,15.60
2019-05-10T11:54:05.124Z,15.60
2019-05-10T11:55:07.738Z,15.60
2019-05-10T11:56:07.731Z,15.50
2019-05-10T11:57:13.469Z,15.50
2019-05-10T11:58:08.583Z,15.50
2019-05-10T11:59:05.907Z,15.50
2019-05-10T12:00:10.764Z,15.50
2019-05-10T12:01:14.601Z,15.50
2019-05-10T12:02:09.344Z,15.50
2019-05-10T12:03:11.123Z,15.50
2019-05-10T12:04:12.884Z,15.40
2019-05-10T12:05:12.001Z,15.40
2019-05-10T12:06:08.905Z,15.40
2019-05-10T12:07:06.604Z,15.40
2019-05-10T12:08:08.004Z,15.30
2019-05-10T12:09:05.292Z,15.30
2019-05-10T12:10:14.403Z,15.30
2019-05-10T12:11:14.017Z,15.20
2019-05-10T12:12:05.023Z,15.30
2019-05-10T12:13:14.743Z,15.30
2019-05-10T12:14:08.119Z,15.30
2019-05-10T12:15:07.798Z,15.40
2019-05-10T12:16:04.843Z,15.40
2019-05-10T12:17:06.167Z,15.50
2019-05-10T12:18:05.733Z,15.50
2019-05-10T12:19:14.825Z,15.70
2019-05-10T12:20:07.192Z,15.60
2019-05-10T12:21:09.479Z,15.70
2019-05-10T12:22:15.417Z,15.70
2019-05-10T12:23:13.071Z,15.70
2019-05-10T12:25:23.145Z,15.70
2019-05-10T12:26:15.244Z,15.70
2019-05-10T12:27:14.292Z,15.70
2019-05-10T12:28:05.780Z,15.80
2019-05-10T12:29:11.810Z,15.90
2019-05-10T12:30:07.455Z,15.90
2019-05-10T12:31:13.321Z,15.90
2019-05-10T12:32:10.452Z,15.90
2019-05-10T12:33:09.123Z,16.00
2019-05-10T12:34:12.738Z,16.00
2019-05-10T12:35:05.577Z,16.00
2019-05-10T12:36:10.939Z,16.10
2019-05-10T12:37:08.198Z,16.10
2019-05-10T12:38:05.670Z,16.10
2019-05-10T12:39:05.157Z,16.20
2019-05-10T12:40:09.744Z,16.20
2019-05-10T12:41:05.475Z,16.20
2019-05-10T12:42:07.492Z,16.20
2019-05-10T12:43:10.354Z,16.20
2019-05-10T12:44:07.353Z,16.20
2019-05-10T12:45:05.857Z,16.20
2019-05-10T12:46:07.750Z,16.20
2019-05-10T12:47:05.416Z,16.20
2019-05-10T12:48:08.421Z,16.10
2019-05-10T12:49:05.500Z,16.10
2019-05-10T12:50:08.201Z,16.00
2019-05-10T12:51:11.307Z,16.00
2019-05-10T12:52:09.038Z,16.00
2019-05-10T12:53:13.624Z,16.00
2019-05-10T12:54:05.646Z,15.90
2019-05-10T12:55:04.758Z,15.90
2019-05-10T12:56:07.993Z,15.90
2019-05-10T12:57:05.127Z,15.90
2019-05-10T12:58:05.262Z,15.90
2019-05-10T12:59:05.444Z,15.90
2019-05-10T13:00:06.624Z,16.00